Aviation Digital Data Service (ADDS)

Output produced by METARs form (2139 UTC 26 May 2019)
found at http://aviationweather.gov/metar/data/
 
KRDG 262126Z 26007KT 10SM VCTS FEW031 BKN085 BKN110 23/21 A2991 RMK AO2 LTG DSNT SE AND S TSB05E20 T02280206 $
KRDG 262111Z 25015G20KT 10SM TS FEW049 BKN100 OVC120 24/22 A2993 RMK AO2 LTG DSNT SW AND W TSB05 T02390217 $
KRDG 262104Z 28010KT 10SM VCTS FEW050 SCT080 BKN090 24/22 A2992 RMK AO2 LTG DSNT SW AND W PRESRR T02390222 $
KRDG 262054Z 31009KT 10SM FEW050 SCT085 BKN110 25/22 A2990 RMK AO2 LTG DSNT SW-NW SLP130 60020 T02500217 50000 $
KRDG 262001Z 2620/2718 28008KT P6SM VCSH SCT040 BKN100 
     TEMPO 2622/2624 4SM -TSRA BKN040CB 
     FM270000 31008KT P6SM VCTS SCT040CB 
     FM270100 33008KT P6SM BKN100 
     FM270600 36005KT P6SM SCT100
       
KABE 262051Z 28010G21KT 10SM BKN046 BKN060 BKN110 28/18 A2990 RMK AO2 SLP121 60000 T02830183 56012
KABE 262137Z 2622/2718 28012KT P6SM VCSH BKN050 
     FM270000 31008KT P6SM BKN100 
     FM270600 36004KT P6SM SCT100
       
KPNE 262054Z 35010KT 10SM FEW043 FEW060 OVC110 27/18 A2992 RMK AO2 PK WND 33026/2038 WSHFT 2027 LTG DSNT NE SLP130 T02670178 55006
KPNE 262047Z 34012G26KT 10SM FEW043 SCT050 OVC110 26/18 A2992 RMK AO2 PK WND 33026/2038 WSHFT 2027 LTG DSNT NE T02610178
KPNE 262101Z 2621/2718 33012KT P6SM SCT050 BKN200 
     TEMPO 2622/2624 4SM -TSRA BKN050CB 
     FM270000 32008KT P6SM VCTS BKN050CB 
     FM270200 33004KT P6SM SCT070 BKN100 
     FM271200 36006KT P6SM SCT200